sensor_id;sensor_type;location;lat;lon;timestamp;temperature;humidity
40756;DHT22;26461;45.630;9.418;2024-02-04T00:03:14;11.00;82.40
40756;DHT22;26461;45.630;9.418;2024-02-04T00:06:25;10.90;82.20
40756;DHT22;26461;45.630;9.418;2024-02-04T00:09:35;10.90;82.60
40756;DHT22;26461;45.630;9.418;2024-02-04T00:12:45;10.90;82.30
40756;DHT22;26461;45.630;9.418;2024-02-04T00:15:55;10.90;82.20
40756;DHT22;26461;45.630;9.418;2024-02-04T00:19:08;10.90;82.30
40756;DHT22;26461;45.630;9.418;2024-02-04T00:22:18;10.90;82.20
40756;DHT22;26461;45.630;9.418;2024-02-04T00:25:30;10.90;82.40
40756;DHT22;26461;45.630;9.418;2024-02-04T00:28:40;10.90;82.40
40756;DHT22;26461;45.630;9.418;2024-02-04T00:31:47;10.90;82.30
40756;DHT22;26461;45.630;9.418;2024-02-04T00:34:57;10.90;82.40
40756;DHT22;26461;45.630;9.418;2024-02-04T00:38:07;10.80;82.50
40756;DHT22;26461;45.630;9.418;2024-02-04T00:41:18;10.80;82.50
40756;DHT22;26461;45.630;9.418;2024-02-04T00:44:23;10.70;82.80
40756;DHT22;26461;45.630;9.418;2024-02-04T00:47:33;11.10;83.50
40756;DHT22;26461;45.630;9.418;2024-02-04T00:50:38;10.60;83.60
40756;DHT22;26461;45.630;9.418;2024-02-04T00:53:43;10.60;83.80
40756;DHT22;26461;45.630;9.418;2024-02-04T00:56:48;10.60;84.00
40756;DHT22;26461;45.630;9.418;2024-02-04T00:59:58;10.60;83.90
40756;DHT22;26461;45.630;9.418;2024-02-04T01:03:07;10.60;84.20
40756;DHT22;26461;45.630;9.418;2024-02-04T01:06:17;10.70;84.20
40756;DHT22;26461;45.630;9.418;2024-02-04T01:09:30;10.70;83.90
40756;DHT22;26461;45.630;9.418;2024-02-04T01:12:40;10.60;83.80
40756;DHT22;26461;45.630;9.418;2024-02-04T01:15:46;10.60;83.20
40756;DHT22;26461;45.630;9.418;2024-02-04T01:18:51;10.70;82.60
40756;DHT22;26461;45.630;9.418;2024-02-04T01:22:01;10.60;82.30
40756;DHT22;26461;45.630;9.418;2024-02-04T01:25:11;10.60;82.10
40756;DHT22;26461;45.630;9.418;2024-02-04T01:28:17;10.50;82.20
40756;DHT22;26461;45.630;9.418;2024-02-04T01:31:22;10.50;82.40
40756;DHT22;26461;45.630;9.418;2024-02-04T01:34:27;10.40;82.10
40756;DHT22;26461;45.630;9.418;2024-02-04T01:37:32;10.40;81.90
40756;DHT22;26461;45.630;9.418;2024-02-04T01:40:37;10.40;82.60
40756;DHT22;26461;45.630;9.418;2024-02-04T01:43:47;10.30;81.50
40756;DHT22;26461;45.630;9.418;2024-02-04T01:46:57;10.30;81.40
40756;DHT22;26461;45.630;9.418;2024-02-04T01:50:08;10.30;81.70
40756;DHT22;26461;45.630;9.418;2024-02-04T01:53:22;10.30;81.50
40756;DHT22;26461;45.630;9.418;2024-02-04T01:56:33;10.20;81.20
40756;DHT22;26461;45.630;9.418;2024-02-04T01:59:45;10.20;81.50
40756;DHT22;26461;45.630;9.418;2024-02-04T02:02:59;10.10;81.80
40756;DHT22;26461;45.630;9.418;2024-02-04T02:06:05;10.20;81.30
40756;DHT22;26461;45.630;9.418;2024-02-04T02:09:15;10.10;80.80
40756;DHT22;26461;45.630;9.418;2024-02-04T02:12:29;10.00;81.40
40756;DHT22;26461;45.630;9.418;2024-02-04T02:15:49;10.10;82.00
40756;DHT22;26461;45.630;9.418;2024-02-04T02:22:29;10.10;82.60
40756;DHT22;26461;45.630;9.418;2024-02-04T02:25:36;10.10;81.20
40756;DHT22;26461;45.630;9.418;2024-02-04T02:28:47;10.10;79.40
40756;DHT22;26461;45.630;9.418;2024-02-04T02:31:57;10.00;81.20
40756;DHT22;26461;45.630;9.418;2024-02-04T02:35:07;9.90;82.10
40756;DHT22;26461;45.630;9.418;2024-02-04T02:38:30;10.00;82.80
40756;DHT22;26461;45.630;9.418;2024-02-04T02:41:48;10.10;84.60
40756;DHT22;26461;45.630;9.418;2024-02-04T02:44:54;10.10;82.20
40756;DHT22;26461;45.630;9.418;2024-02-04T02:47:59;10.10;81.50
40756;DHT22;26461;45.630;9.418;2024-02-04T02:51:05;10.10;83.40
40756;DHT22;26461;45.630;9.418;2024-02-04T02:54:15;10.10;83.30
40756;DHT22;26461;45.630;9.418;2024-02-04T02:57:20;10.10;83.40
40756;DHT22;26461;45.630;9.418;2024-02-04T03:00:30;10.10;84.40
40756;DHT22;26461;45.630;9.418;2024-02-04T03:03:40;10.20;84.50
40756;DHT22;26461;45.630;9.418;2024-02-04T03:06:50;10.20;84.20
40756;DHT22;26461;45.630;9.418;2024-02-04T03:10:19;10.20;84.50
40756;DHT22;26461;45.630;9.418;2024-02-04T03:13:29;10.30;84.30
40756;DHT22;26461;45.630;9.418;2024-02-04T03:16:35;10.30;84.70
40756;DHT22;26461;45.630;9.418;2024-02-04T03:19:45;10.20;83.70
40756;DHT22;26461;45.630;9.418;2024-02-04T03:22:52;10.30;83.50
40756;DHT22;26461;45.630;9.418;2024-02-04T03:26:02;10.20;82.20
40756;DHT22;26461;45.630;9.418;2024-02-04T03:29:12;10.20;81.50
40756;DHT22;26461;45.630;9.418;2024-02-04T03:32:22;10.10;81.50
40756;DHT22;26461;45.630;9.418;2024-02-04T03:35:27;10.10;81.80
40756;DHT22;26461;45.630;9.418;2024-02-04T03:38:32;10.00;82.30
40756;DHT22;26461;45.630;9.418;2024-02-04T03:41:37;9.90;81.70
40756;DHT22;26461;45.630;9.418;2024-02-04T03:44:47;9.90;81.40
40756;DHT22;26461;45.630;9.418;2024-02-04T03:47:57;9.90;82.70
40756;DHT22;26461;45.630;9.418;2024-02-04T03:51:08;9.90;81.60
40756;DHT22;26461;45.630;9.418;2024-02-04T03:54:13;9.90;82.20
40756;DHT22;26461;45.630;9.418;2024-02-04T03:57:23;9.90;82.90
40756;DHT22;26461;45.630;9.418;2024-02-04T04:00:28;9.90;83.20
40756;DHT22;26461;45.630;9.418;2024-02-04T04:03:41;10.00;83.30
40756;DHT22;26461;45.630;9.418;2024-02-04T04:06:47;10.00;83.60
40756;DHT22;26461;45.630;9.418;2024-02-04T04:09:58;10.10;81.50
40756;DHT22;26461;45.630;9.418;2024-02-04T04:13:08;10.10;82.60
40756;DHT22;26461;45.630;9.418;2024-02-04T04:16:21;10.10;82.70
40756;DHT22;26461;45.630;9.418;2024-02-04T04:19:26;10.10;82.50
40756;DHT22;26461;45.630;9.418;2024-02-04T04:22:39;10.10;81.20
40756;DHT22;26461;45.630;9.418;2024-02-04T04:25:50;10.00;78.40
40756;DHT22;26461;45.630;9.418;2024-02-04T04:28:55;9.90;78.00
40756;DHT22;26461;45.630;9.418;2024-02-04T04:32:05;9.80;78.40
40756;DHT22;26461;45.630;9.418;2024-02-04T04:35:16;9.60;78.80
40756;DHT22;26461;45.630;9.418;2024-02-04T04:38:21;9.60;79.60
40756;DHT22;26461;45.630;9.418;2024-02-04T04:41:26;9.50;79.70
40756;DHT22;26461;45.630;9.418;2024-02-04T04:44:36;9.70;80.40
40756;DHT22;26461;45.630;9.418;2024-02-04T04:47:47;9.40;80.30
40756;DHT22;26461;45.630;9.418;2024-02-04T04:50:52;9.40;80.30
40756;DHT22;26461;45.630;9.418;2024-02-04T04:53:57;9.20;80.60
40756;DHT22;26461;45.630;9.418;2024-02-04T04:57:07;9.20;80.00
40756;DHT22;26461;45.630;9.418;2024-02-04T05:00:17;9.10;79.20
40756;DHT22;26461;45.630;9.418;2024-02-04T05:03:27;9.00;78.50
40756;DHT22;26461;45.630;9.418;2024-02-04T05:06:37;8.90;78.50
40756;DHT22;26461;45.630;9.418;2024-02-04T05:09:46;8.80;79.40
40756;DHT22;26461;45.630;9.418;2024-02-04T05:12:57;9.00;80.00
40756;DHT22;26461;45.630;9.418;2024-02-04T05:16:07;8.70;80.00
40756;DHT22;26461;45.630;9.418;2024-02-04T05:19:12;8.70;80.00
40756;DHT22;26461;45.630;9.418;2024-02-04T05:22:17;8.70;80.10
40756;DHT22;26461;45.630;9.418;2024-02-04T05:25:28;8.60;80.20
40756;DHT22;26461;45.630;9.418;2024-02-04T05:28:38;8.60;80.50
40756;DHT22;26461;45.630;9.418;2024-02-04T05:31:48;8.60;80.70
40756;DHT22;26461;45.630;9.418;2024-02-04T05:34:58;8.50;80.80
40756;DHT22;26461;45.630;9.418;2024-02-04T05:38:09;8.50;80.90
40756;DHT22;26461;45.630;9.418;2024-02-04T05:41:18;9.70;81.60
40756;DHT22;26461;45.630;9.418;2024-02-04T05:44:28;8.50;81.40
40756;DHT22;26461;45.630;9.418;2024-02-04T05:47:39;8.60;81.60
40756;DHT22;26461;45.630;9.418;2024-02-04T05:50:48;8.70;81.10
40756;DHT22;26461;45.630;9.418;2024-02-04T05:53:58;8.70;80.20
40756;DHT22;26461;45.630;9.418;2024-02-04T05:57:04;8.80;79.90
40756;DHT22;26461;45.630;9.418;2024-02-04T06:00:09;8.70;79.50
40756;DHT22;26461;45.630;9.418;2024-02-04T06:03:14;8.60;79.00
40756;DHT22;26461;45.630;9.418;2024-02-04T06:06:25;8.60;79.30
40756;DHT22;26461;45.630;9.418;2024-02-04T06:09:35;8.60;79.70
40756;DHT22;26461;45.630;9.418;2024-02-04T06:12:40;8.60;79.10
40756;DHT22;26461;45.630;9.418;2024-02-04T06:15:49;8.50;79.00
40756;DHT22;26461;45.630;9.418;2024-02-04T06:18:54;8.40;79.50
40756;DHT22;26461;45.630;9.418;2024-02-04T06:22:06;8.30;79.30
40756;DHT22;26461;45.630;9.418;2024-02-04T06:25:17;8.30;79.20
40756;DHT22;26461;45.630;9.418;2024-02-04T06:28:21;8.20;78.80
40756;DHT22;26461;45.630;9.418;2024-02-04T06:31:26;8.20;79.40
40756;DHT22;26461;45.630;9.418;2024-02-04T06:34:31;8.10;79.70
40756;DHT22;26461;45.630;9.418;2024-02-04T06:37:41;8.10;80.20
40756;DHT22;26461;45.630;9.418;2024-02-04T06:40:54;8.10;79.10
40756;DHT22;26461;45.630;9.418;2024-02-04T06:43:59;8.10;79.70
40756;DHT22;26461;45.630;9.418;2024-02-04T06:47:10;8.20;81.20
40756;DHT22;26461;45.630;9.418;2024-02-04T06:50:22;8.10;79.70
40756;DHT22;26461;45.630;9.418;2024-02-04T06:53:32;8.10;80.20
40756;DHT22;26461;45.630;9.418;2024-02-04T06:56:37;8.10;81.30
40756;DHT22;26461;45.630;9.418;2024-02-04T06:59:50;8.20;82.00
40756;DHT22;26461;45.630;9.418;2024-02-04T07:03:00;8.80;82.90
40756;DHT22;26461;45.630;9.418;2024-02-04T07:06:05;8.30;82.60
40756;DHT22;26461;45.630;9.418;2024-02-04T07:09:15;8.40;82.40
40756;DHT22;26461;45.630;9.418;2024-02-04T07:12:25;8.50;81.90
40756;DHT22;26461;45.630;9.418;2024-02-04T07:15:35;8.50;79.70
40756;DHT22;26461;45.630;9.418;2024-02-04T07:18:46;8.30;78.70
40756;DHT22;26461;45.630;9.418;2024-02-04T07:21:56;8.30;79.10
40756;DHT22;26461;45.630;9.418;2024-02-04T07:25:06;8.30;79.40
40756;DHT22;26461;45.630;9.418;2024-02-04T07:28:15;8.20;79.00
40756;DHT22;26461;45.630;9.418;2024-02-04T07:31:25;8.30;79.00
40756;DHT22;26461;45.630;9.418;2024-02-04T07:34:35;8.10;79.30
40756;DHT22;26461;45.630;9.418;2024-02-04T07:37:46;8.10;79.90
40756;DHT22;26461;45.630;9.418;2024-02-04T07:40:56;8.10;80.40
40756;DHT22;26461;45.630;9.418;2024-02-04T07:44:08;8.10;80.80
40756;DHT22;26461;45.630;9.418;2024-02-04T07:47:18;8.20;81.20
40756;DHT22;26461;45.630;9.418;2024-02-04T07:50:31;8.20;79.70
40756;DHT22;26461;45.630;9.418;2024-02-04T07:53:36;8.10;80.00
40756;DHT22;26461;45.630;9.418;2024-02-04T07:56:46;8.10;80.30
40756;DHT22;26461;45.630;9.418;2024-02-04T07:59:56;8.10;80.90
40756;DHT22;26461;45.630;9.418;2024-02-04T08:03:16;8.20;81.60
40756;DHT22;26461;45.630;9.418;2024-02-04T08:06:26;8.20;82.50
40756;DHT22;26461;45.630;9.418;2024-02-04T08:09:36;8.40;82.70
40756;DHT22;26461;45.630;9.418;2024-02-04T08:12:41;8.30;82.70
40756;DHT22;26461;45.630;9.418;2024-02-04T08:15:51;8.30;83.20
40756;DHT22;26461;45.630;9.418;2024-02-04T08:19:01;8.30;83.10
40756;DHT22;26461;45.630;9.418;2024-02-04T08:22:11;8.40;82.60
40756;DHT22;26461;45.630;9.418;2024-02-04T08:25:21;8.40;82.30
40756;DHT22;26461;45.630;9.418;2024-02-04T08:28:31;8.40;81.80
40756;DHT22;26461;45.630;9.418;2024-02-04T08:31:41;8.50;81.80
40756;DHT22;26461;45.630;9.418;2024-02-04T08:34:51;8.50;81.90
40756;DHT22;26461;45.630;9.418;2024-02-04T08:38:01;8.50;81.90
40756;DHT22;26461;45.630;9.418;2024-02-04T08:41:06;8.60;82.20
40756;DHT22;26461;45.630;9.418;2024-02-04T08:44:16;8.60;82.40
40756;DHT22;26461;45.630;9.418;2024-02-04T08:47:21;8.60;82.60
40756;DHT22;26461;45.630;9.418;2024-02-04T08:50:26;8.70;82.90
40756;DHT22;26461;45.630;9.418;2024-02-04T08:53:31;8.80;83.00
40756;DHT22;26461;45.630;9.418;2024-02-04T08:56:41;8.90;83.20
40756;DHT22;26461;45.630;9.418;2024-02-04T08:59:46;9.10;83.40
40756;DHT22;26461;45.630;9.418;2024-02-04T09:02:56;9.00;83.50
40756;DHT22;26461;45.630;9.418;2024-02-04T09:06:06;9.10;83.90
40756;DHT22;26461;45.630;9.418;2024-02-04T09:09:17;9.30;84.50
40756;DHT22;26461;45.630;9.418;2024-02-04T09:12:26;9.30;85.00
40756;DHT22;26461;45.630;9.418;2024-02-04T09:15:37;9.20;85.70
40756;DHT22;26461;45.630;9.418;2024-02-04T09:18:47;9.30;86.00
40756;DHT22;26461;45.630;9.418;2024-02-04T09:21:57;9.30;86.40
40756;DHT22;26461;45.630;9.418;2024-02-04T09:25:07;9.50;86.60
40756;DHT22;26461;45.630;9.418;2024-02-04T09:28:17;9.40;86.50
40756;DHT22;26461;45.630;9.418;2024-02-04T09:31:22;9.50;86.70
40756;DHT22;26461;45.630;9.418;2024-02-04T09:34:32;10.00;87.40
40756;DHT22;26461;45.630;9.418;2024-02-04T09:37:42;9.60;87.20
40756;DHT22;26461;45.630;9.418;2024-02-04T09:40:52;10.70;88.00
40756;DHT22;26461;45.630;9.418;2024-02-04T09:43:58;9.70;87.40
40756;DHT22;26461;45.630;9.418;2024-02-04T09:47:03;9.70;87.30
40756;DHT22;26461;45.630;9.418;2024-02-04T09:50:13;9.80;88.30
40756;DHT22;26461;45.630;9.418;2024-02-04T09:53:34;9.90;87.40
40756;DHT22;26461;45.630;9.418;2024-02-04T09:56:44;9.90;87.40
40756;DHT22;26461;45.630;9.418;2024-02-04T09:59:54;10.00;87.40
40756;DHT22;26461;45.630;9.418;2024-02-04T10:03:05;10.00;87.40
40756;DHT22;26461;45.630;9.418;2024-02-04T10:06:15;10.10;87.40
40756;DHT22;26461;45.630;9.418;2024-02-04T10:09:26;10.20;87.40
40756;DHT22;26461;45.630;9.418;2024-02-04T10:12:36;10.20;87.30
40756;DHT22;26461;45.630;9.418;2024-02-04T10:15:48;10.20;87.20
40756;DHT22;26461;45.630;9.418;2024-02-04T10:19:00;10.30;87.20
40756;DHT22;26461;45.630;9.418;2024-02-04T10:22:05;10.30;87.00
40756;DHT22;26461;45.630;9.418;2024-02-04T10:25:10;10.30;86.80
40756;DHT22;26461;45.630;9.418;2024-02-04T10:28:25;10.40;86.50
40756;DHT22;26461;45.630;9.418;2024-02-04T10:31:34;10.40;86.30
40756;DHT22;26461;45.630;9.418;2024-02-04T10:34:44;10.40;86.30
40756;DHT22;26461;45.630;9.418;2024-02-04T10:37:55;10.50;86.40
40756;DHT22;26461;45.630;9.418;2024-02-04T10:41:06;10.50;86.50
40756;DHT22;26461;45.630;9.418;2024-02-04T10:44:13;10.60;86.30
40756;DHT22;26461;45.630;9.418;2024-02-04T10:47:29;10.60;86.20
40756;DHT22;26461;45.630;9.418;2024-02-04T10:50:40;10.70;86.10
40756;DHT22;26461;45.630;9.418;2024-02-04T10:53:46;10.70;85.90
40756;DHT22;26461;45.630;9.418;2024-02-04T10:56:55;10.70;85.90
40756;DHT22;26461;45.630;9.418;2024-02-04T11:00:03;10.70;85.80
40756;DHT22;26461;45.630;9.418;2024-02-04T11:03:18;10.70;85.60
40756;DHT22;26461;45.630;9.418;2024-02-04T11:06:23;10.80;85.50
40756;DHT22;26461;45.630;9.418;2024-02-04T11:09:33;10.90;85.50
40756;DHT22;26461;45.630;9.418;2024-02-04T11:12:44;10.90;85.30
40756;DHT22;26461;45.630;9.418;2024-02-04T11:15:57;10.90;85.20
40756;DHT22;26461;45.630;9.418;2024-02-04T11:26:22;11.00;84.10
40756;DHT22;26461;45.630;9.418;2024-02-04T11:29:33;11.10;84.00
40756;DHT22;26461;45.630;9.418;2024-02-04T11:32:41;11.20;83.80
40756;DHT22;26461;45.630;9.418;2024-02-04T11:35:46;11.20;83.50
40756;DHT22;26461;45.630;9.418;2024-02-04T11:38:56;11.20;83.40
40756;DHT22;26461;45.630;9.418;2024-02-04T11:42:14;11.30;84.00
40756;DHT22;26461;45.630;9.418;2024-02-04T11:45:26;11.30;83.10
40756;DHT22;26461;45.630;9.418;2024-02-04T11:48:36;11.40;83.10
40756;DHT22;26461;45.630;9.418;2024-02-04T11:51:51;11.40;83.10
40756;DHT22;26461;45.630;9.418;2024-02-04T11:55:01;11.40;82.90
40756;DHT22;26461;45.630;9.418;2024-02-04T11:58:12;11.50;82.40
40756;DHT22;26461;45.630;9.418;2024-02-04T12:01:23;11.50;82.20
40756;DHT22;26461;45.630;9.418;2024-02-04T12:04:34;11.60;81.80
40756;DHT22;26461;45.630;9.418;2024-02-04T12:07:44;11.60;81.60
40756;DHT22;26461;45.630;9.418;2024-02-04T12:10:54;11.60;81.40
40756;DHT22;26461;45.630;9.418;2024-02-04T12:14:06;11.70;81.00
40756;DHT22;26461;45.630;9.418;2024-02-04T12:17:16;11.70;80.80
40756;DHT22;26461;45.630;9.418;2024-02-04T12:20:21;11.80;80.80
40756;DHT22;26461;45.630;9.418;2024-02-04T12:23:31;11.90;80.70
40756;DHT22;26461;45.630;9.418;2024-02-04T12:26:41;11.90;80.30
40756;DHT22;26461;45.630;9.418;2024-02-04T12:29:52;12.00;80.00
40756;DHT22;26461;45.630;9.418;2024-02-04T12:33:04;12.00;79.70
40756;DHT22;26461;45.630;9.418;2024-02-04T12:36:14;12.10;79.40
40756;DHT22;26461;45.630;9.418;2024-02-04T12:39:24;12.10;79.30
40756;DHT22;26461;45.630;9.418;2024-02-04T12:42:35;12.20;79.10
40756;DHT22;26461;45.630;9.418;2024-02-04T12:45:45;12.20;79.00
40756;DHT22;26461;45.630;9.418;2024-02-04T12:48:54;12.30;78.80
40756;DHT22;26461;45.630;9.418;2024-02-04T12:52:05;12.40;78.70
40756;DHT22;26461;45.630;9.418;2024-02-04T12:55:24;12.40;78.50
40756;DHT22;26461;45.630;9.418;2024-02-04T12:58:29;12.50;78.40
40756;DHT22;26461;45.630;9.418;2024-02-04T13:01:39;12.60;78.40
40756;DHT22;26461;45.630;9.418;2024-02-04T13:04:44;12.70;77.30
40756;DHT22;26461;45.630;9.418;2024-02-04T13:07:56;12.70;76.80
40756;DHT22;26461;45.630;9.418;2024-02-04T13:11:02;12.80;76.00
40756;DHT22;26461;45.630;9.418;2024-02-04T13:14:12;12.80;75.00
40756;DHT22;26461;45.630;9.418;2024-02-04T13:17:22;12.90;74.70
40756;DHT22;26461;45.630;9.418;2024-02-04T13:20:32;12.90;74.40
40756;DHT22;26461;45.630;9.418;2024-02-04T13:23:43;13.00;74.40
40756;DHT22;26461;45.630;9.418;2024-02-04T13:26:53;13.00;74.00
40756;DHT22;26461;45.630;9.418;2024-02-04T13:30:03;13.00;73.50
40756;DHT22;26461;45.630;9.418;2024-02-04T13:33:14;13.00;73.30
40756;DHT22;26461;45.630;9.418;2024-02-04T13:36:19;13.00;72.90
40756;DHT22;26461;45.630;9.418;2024-02-04T13:39:29;13.00;72.50
40756;DHT22;26461;45.630;9.418;2024-02-04T13:42:35;13.00;72.20
40756;DHT22;26461;45.630;9.418;2024-02-04T13:45:41;12.90;72.10
40756;DHT22;26461;45.630;9.418;2024-02-04T13:48:46;13.00;72.00
40756;DHT22;26461;45.630;9.418;2024-02-04T13:51:51;13.00;72.20
40756;DHT22;26461;45.630;9.418;2024-02-04T13:55:02;13.00;72.20
40756;DHT22;26461;45.630;9.418;2024-02-04T13:58:15;13.00;72.40
40756;DHT22;26461;45.630;9.418;2024-02-04T14:01:24;13.10;72.50
40756;DHT22;26461;45.630;9.418;2024-02-04T14:04:35;13.10;73.50
40756;DHT22;26461;45.630;9.418;2024-02-04T14:07:39;13.20;72.30
40756;DHT22;26461;45.630;9.418;2024-02-04T14:10:50;13.30;72.30
40756;DHT22;26461;45.630;9.418;2024-02-04T14:13:54;13.40;72.30
40756;DHT22;26461;45.630;9.418;2024-02-04T14:17:00;13.40;72.10
40756;DHT22;26461;45.630;9.418;2024-02-04T14:20:10;13.40;71.90
40756;DHT22;26461;45.630;9.418;2024-02-04T14:23:15;13.50;71.90
40756;DHT22;26461;45.630;9.418;2024-02-04T14:26:25;13.60;71.50
40756;DHT22;26461;45.630;9.418;2024-02-04T14:29:35;13.60;71.30
40756;DHT22;26461;45.630;9.418;2024-02-04T14:32:46;13.70;71.10
40756;DHT22;26461;45.630;9.418;2024-02-04T14:35:56;13.70;70.70
40756;DHT22;26461;45.630;9.418;2024-02-04T14:39:07;13.70;70.60
40756;DHT22;26461;45.630;9.418;2024-02-04T14:42:18;13.70;70.70
40756;DHT22;26461;45.630;9.418;2024-02-04T14:45:29;13.80;70.90
40756;DHT22;26461;45.630;9.418;2024-02-04T14:48:40;13.80;70.80
40756;DHT22;26461;45.630;9.418;2024-02-04T14:51:50;13.80;70.60
40756;DHT22;26461;45.630;9.418;2024-02-04T14:55:01;13.80;70.40
40756;DHT22;26461;45.630;9.418;2024-02-04T14:58:11;13.80;71.00
40756;DHT22;26461;45.630;9.418;2024-02-04T15:01:22;13.80;70.20
40756;DHT22;26461;45.630;9.418;2024-02-04T15:04:26;13.70;70.10
40756;DHT22;26461;45.630;9.418;2024-02-04T15:07:39;13.70;70.10
40756;DHT22;26461;45.630;9.418;2024-02-04T15:10:45;13.70;70.30
40756;DHT22;26461;45.630;9.418;2024-02-04T15:13:56;13.60;70.20
40756;DHT22;26461;45.630;9.418;2024-02-04T15:17:07;13.60;70.20
40756;DHT22;26461;45.630;9.418;2024-02-04T15:20:12;13.50;70.30
40756;DHT22;26461;45.630;9.418;2024-02-04T15:23:18;13.50;70.30
40756;DHT22;26461;45.630;9.418;2024-02-04T15:26:29;13.40;70.20
40756;DHT22;26461;45.630;9.418;2024-02-04T15:29:42;13.40;70.30
40756;DHT22;26461;45.630;9.418;2024-02-04T15:32:47;13.30;70.40
40756;DHT22;26461;45.630;9.418;2024-02-04T15:35:57;13.30;70.60
40756;DHT22;26461;45.630;9.418;2024-02-04T15:39:07;13.20;70.70
40756;DHT22;26461;45.630;9.418;2024-02-04T15:42:16;13.20;71.00
40756;DHT22;26461;45.630;9.418;2024-02-04T15:45:21;13.10;71.10
40756;DHT22;26461;45.630;9.418;2024-02-04T15:48:28;13.00;71.30
40756;DHT22;26461;45.630;9.418;2024-02-04T15:51:38;13.00;71.50
40756;DHT22;26461;45.630;9.418;2024-02-04T15:54:44;12.90;71.80
40756;DHT22;26461;45.630;9.418;2024-02-04T15:57:54;12.90;72.10
40756;DHT22;26461;45.630;9.418;2024-02-04T16:01:14;12.80;72.30
40756;DHT22;26461;45.630;9.418;2024-02-04T16:04:20;12.80;72.50
40756;DHT22;26461;45.630;9.418;2024-02-04T16:07:32;12.70;72.70
40756;DHT22;26461;45.630;9.418;2024-02-04T16:10:42;12.70;73.00
40756;DHT22;26461;45.630;9.418;2024-02-04T16:13:55;12.70;73.20
40756;DHT22;26461;45.630;9.418;2024-02-04T16:17:06;12.80;73.20
40756;DHT22;26461;45.630;9.418;2024-02-04T16:20:17;12.70;73.00
40756;DHT22;26461;45.630;9.418;2024-02-04T16:23:23;12.80;73.00
40756;DHT22;26461;45.630;9.418;2024-02-04T16:26:38;12.80;72.90
40756;DHT22;26461;45.630;9.418;2024-02-04T16:29:48;12.70;72.90
40756;DHT22;26461;45.630;9.418;2024-02-04T16:32:53;12.70;72.90
40756;DHT22;26461;45.630;9.418;2024-02-04T16:35:58;12.70;73.00
40756;DHT22;26461;45.630;9.418;2024-02-04T16:39:09;12.60;73.20
40756;DHT22;26461;45.630;9.418;2024-02-04T16:42:19;12.60;73.30
40756;DHT22;26461;45.630;9.418;2024-02-04T16:45:24;12.60;73.50
40756;DHT22;26461;45.630;9.418;2024-02-04T16:48:29;12.50;73.70
40756;DHT22;26461;45.630;9.418;2024-02-04T16:51:43;12.50;73.90
40756;DHT22;26461;45.630;9.418;2024-02-04T16:54:53;12.40;74.00
40756;DHT22;26461;45.630;9.418;2024-02-04T16:58:03;12.40;74.40
40756;DHT22;26461;45.630;9.418;2024-02-04T17:01:09;12.40;74.60
40756;DHT22;26461;45.630;9.418;2024-02-04T17:04:20;12.30;74.70
40756;DHT22;26461;45.630;9.418;2024-02-04T17:07:25;12.30;74.90
40756;DHT22;26461;45.630;9.418;2024-02-04T17:10:36;12.30;75.10
40756;DHT22;26461;45.630;9.418;2024-02-04T17:13:41;12.20;75.20
40756;DHT22;26461;45.630;9.418;2024-02-04T17:17:05;12.20;75.40
40756;DHT22;26461;45.630;9.418;2024-02-04T17:20:14;12.10;75.50
40756;DHT22;26461;45.630;9.418;2024-02-04T17:23:30;12.10;75.70
40756;DHT22;26461;45.630;9.418;2024-02-04T17:26:42;12.10;75.70
40756;DHT22;26461;45.630;9.418;2024-02-04T17:29:52;12.10;75.70
40756;DHT22;26461;45.630;9.418;2024-02-04T17:33:02;12.10;75.70
40756;DHT22;26461;45.630;9.418;2024-02-04T17:36:09;12.10;75.80
40756;DHT22;26461;45.630;9.418;2024-02-04T17:39:19;12.10;75.90
40756;DHT22;26461;45.630;9.418;2024-02-04T17:42:26;12.10;76.00
40756;DHT22;26461;45.630;9.418;2024-02-04T17:45:37;12.10;76.10
40756;DHT22;26461;45.630;9.418;2024-02-04T17:48:42;12.10;76.10
40756;DHT22;26461;45.630;9.418;2024-02-04T17:51:52;12.00;76.10
40756;DHT22;26461;45.630;9.418;2024-02-04T17:55:03;12.00;76.20
40756;DHT22;26461;45.630;9.418;2024-02-04T17:58:12;12.10;76.20
40756;DHT22;26461;45.630;9.418;2024-02-04T18:01:19;12.00;76.20
40756;DHT22;26461;45.630;9.418;2024-02-04T18:04:25;12.00;76.30
40756;DHT22;26461;45.630;9.418;2024-02-04T18:07:35;12.00;76.30
40756;DHT22;26461;45.630;9.418;2024-02-04T18:10:45;12.00;76.40
40756;DHT22;26461;45.630;9.418;2024-02-04T18:13:52;12.00;76.40
40756;DHT22;26461;45.630;9.418;2024-02-04T18:17:03;12.00;76.50
40756;DHT22;26461;45.630;9.418;2024-02-04T18:20:11;11.90;76.40
40756;DHT22;26461;45.630;9.418;2024-02-04T18:23:17;11.90;76.50
40756;DHT22;26461;45.630;9.418;2024-02-04T18:26:31;11.90;76.50
40756;DHT22;26461;45.630;9.418;2024-02-04T18:29:37;11.90;77.40
40756;DHT22;26461;45.630;9.418;2024-02-04T18:32:42;12.80;77.10
40756;DHT22;26461;45.630;9.418;2024-02-04T18:35:47;11.90;76.50
40756;DHT22;26461;45.630;9.418;2024-02-04T18:38:57;11.90;76.50
40756;DHT22;26461;45.630;9.418;2024-02-04T18:42:03;11.80;76.50
40756;DHT22;26461;45.630;9.418;2024-02-04T18:45:08;11.80;76.50
40756;DHT22;26461;45.630;9.418;2024-02-04T18:48:18;11.80;76.50
40756;DHT22;26461;45.630;9.418;2024-02-04T18:51:28;11.80;76.40
40756;DHT22;26461;45.630;9.418;2024-02-04T18:54:41;11.80;76.50
40756;DHT22;26461;45.630;9.418;2024-02-04T18:57:51;11.70;76.40
40756;DHT22;26461;45.630;9.418;2024-02-04T19:01:01;11.70;75.90
40756;DHT22;26461;45.630;9.418;2024-02-04T19:04:12;11.70;75.80
40756;DHT22;26461;45.630;9.418;2024-02-04T19:07:17;11.70;75.40
40756;DHT22;26461;45.630;9.418;2024-02-04T19:10:23;11.70;75.00
40756;DHT22;26461;45.630;9.418;2024-02-04T19:13:33;11.70;75.20
40756;DHT22;26461;45.630;9.418;2024-02-04T19:16:43;11.70;74.70
40756;DHT22;26461;45.630;9.418;2024-02-04T19:19:53;11.70;73.60
40756;DHT22;26461;45.630;9.418;2024-02-04T19:22:58;11.70;73.00
40756;DHT22;26461;45.630;9.418;2024-02-04T19:26:08;11.70;72.00
40756;DHT22;26461;45.630;9.418;2024-02-04T19:29:18;11.70;71.70
40756;DHT22;26461;45.630;9.418;2024-02-04T19:32:29;11.70;71.20
40756;DHT22;26461;45.630;9.418;2024-02-04T19:35:39;11.60;70.50
40756;DHT22;26461;45.630;9.418;2024-02-04T19:38:45;11.70;70.00
40756;DHT22;26461;45.630;9.418;2024-02-04T19:41:50;11.70;69.60
40756;DHT22;26461;45.630;9.418;2024-02-04T19:44:56;11.70;69.40
40756;DHT22;26461;45.630;9.418;2024-02-04T19:48:06;11.70;68.80
40756;DHT22;26461;45.630;9.418;2024-02-04T19:51:19;11.70;68.50
40756;DHT22;26461;45.630;9.418;2024-02-04T19:54:24;11.70;68.60
40756;DHT22;26461;45.630;9.418;2024-02-04T19:57:34;11.70;67.90
40756;DHT22;26461;45.630;9.418;2024-02-04T20:00:42;11.70;68.00
40756;DHT22;26461;45.630;9.418;2024-02-04T20:03:52;11.70;68.30
40756;DHT22;26461;45.630;9.418;2024-02-04T20:06:57;11.70;68.30
40756;DHT22;26461;45.630;9.418;2024-02-04T20:10:07;11.70;68.10
40756;DHT22;26461;45.630;9.418;2024-02-04T20:13:13;11.70;68.00